Time;durP1;ratioP1;P1;durP2;ratioP2;P2;SDS_P1;SDS_P2;PMS_P1;PMS_P2;Temp;Humidity;BMP_temperature;BMP_pressure;BME280_temperature;BME280_humidity;BME280_pressure;Samples;Min_cycle;Max_cycle;Signal;HPM_P1;HPM_P2
2023/06/07 00:01:45;;;;;;;7.20;3.90;;;;;;;12.82;70.30;100707.64;104883;1262;69139;-66
2023/06/07 00:04:13;;;;;;;5.00;2.90;;;;;;;12.77;70.53;100706.98;104948;1265;69208;-66
2023/06/07 00:06:42;;;;;;;6.80;3.00;;;;;;;12.74;70.59;100702.89;104975;1262;75598;-66
2023/06/07 00:09:10;;;;;;;6.40;3.20;;;;;;;12.74;71.03;100701.83;104829;1263;82860;-66
2023/06/07 00:11:39;;;;;;;4.60;2.90;;;;;;;12.77;71.18;100706.12;104886;1265;73573;-66
2023/06/07 00:14:07;;;;;;;6.20;2.90;;;;;;;12.79;71.40;100703.23;104914;1265;69236;-66
2023/06/07 00:16:35;;;;;;;6.20;3.50;;;;;;;12.77;71.38;100704.36;104884;1265;69127;-66
2023/06/07 00:19:06;;;;;;;6.50;3.00;;;;;;;12.74;71.25;100702.89;104883;1263;74619;-66
2023/06/07 00:21:36;;;;;;;3.40;2.80;;;;;;;12.72;71.37;100700.85;104924;1262;83481;-66
2023/06/07 00:24:05;;;;;;;;;;;;;;;12.76;71.16;100698.79;104912;1262;72841;-66
2023/06/07 00:26:33;;;;;;;9.10;2.70;;;;;;;12.83;71.01;100695.86;104902;1262;69091;-66
2023/06/07 00:29:02;;;;;;;4.80;2.70;;;;;;;12.91;70.59;100696.92;104946;1262;69237;-66
2023/06/07 00:31:30;;;;;;;9.40;3.60;;;;;;;13.00;70.27;100697.97;104881;1263;73540;-66
2023/06/07 00:33:59;;;;;;;5.50;3.10;;;;;;;13.07;69.88;100698.70;104793;1268;83678;-66
2023/06/07 00:36:29;;;;;;;6.20;3.50;;;;;;;13.14;69.38;100695.95;104744;1265;73672;-67
2023/06/07 00:38:57;;;;;;;5.40;2.80;;;;;;;13.20;68.99;100687.98;104787;1262;69191;-66
2023/06/07 00:41:27;;;;;;;3.40;2.60;;;;;;;13.25;69.11;100691.46;104965;1262;69184;-66
2023/06/07 00:43:55;;;;;;;5.10;3.10;;;;;;;13.31;68.84;100692.45;104795;1265;74435;-66
2023/06/07 00:46:27;;;;;;;5.80;3.40;;;;;;;13.37;69.00;100691.99;104771;1265;83463;-66
2023/06/07 00:48:57;;;;;;;5.70;2.80;;;;;;;13.43;69.25;100692.98;104922;1262;73830;-65
2023/06/07 00:51:28;;;;;;;5.50;3.10;;;;;;;13.39;69.31;100690.16;104905;1265;69191;-64
2023/06/07 00:53:59;;;;;;;4.70;3.00;;;;;;;13.35;69.29;100689.96;104822;1266;69131;-64
2023/06/07 00:56:28;;;;;;;7.40;2.90;;;;;;;13.30;69.44;100691.95;104908;1265;74950;-64
2023/06/07 00:58:57;;;;;;;4.60;2.90;;;;;;;13.27;69.74;100690.34;104878;1262;83839;-64
2023/06/07 01:01:25;;;;;;;6.00;2.90;;;;;;;13.25;70.02;100693.02;104958;1262;72704;-64
2023/06/07 01:03:54;;;;;;;6.60;2.90;;;;;;;13.23;70.30;100689.78;104909;1262;69103;-64
2023/06/07 01:06:24;;;;;;;5.90;2.90;;;;;;;13.19;70.19;100689.95;104845;1262;69229;-64
2023/06/07 01:08:52;;;;;;;11.40;3.50;;;;;;;13.14;70.36;100688.05;104791;1265;74267;-64
2023/06/07 01:11:23;;;;;;;5.50;3.40;;;;;;;13.11;70.78;100686.27;104787;1265;83182;-64
2023/06/07 01:13:53;;;;;;;6.40;2.80;;;;;;;13.11;70.41;100679.06;104741;1263;73731;-64
2023/06/07 01:16:21;;;;;;;6.30;3.10;;;;;;;13.12;70.74;100680.59;104739;1263;69187;-63
2023/06/07 01:18:50;;;;;;;5.10;3.30;;;;;;;13.15;71.02;100678.36;104788;1263;69165;-64
2023/06/07 01:21:19;;;;;;;3.80;3.30;;;;;;;13.18;70.31;100678.23;104728;1265;75126;-64
2023/06/07 01:23:49;;;;;;;8.60;3.90;;;;;;;13.25;70.48;100675.67;104765;1263;83735;-64
2023/06/07 01:26:18;;;;;;;7.50;3.00;;;;;;;13.31;70.75;100680.16;104815;1265;73931;-64
2023/06/07 01:28:47;;;;;;;8.50;3.20;;;;;;;13.35;70.93;100678.93;104704;1262;69466;-64
2023/06/07 01:31:16;;;;;;;7.50;3.60;;;;;;;13.41;71.06;100677.80;104816;1267;69225;-64
2023/06/07 01:33:45;;;;;;;4.10;3.00;;;;;;;13.43;71.12;100676.83;104783;1263;74645;-64
2023/06/07 01:36:15;;;;;;;5.30;3.50;;;;;;;13.42;71.33;100678.30;104755;1262;82265;-64
2023/06/07 01:38:46;;;;;;;7.20;3.80;;;;;;;13.36;71.14;100679.94;104700;1263;73766;-64
2023/06/07 01:41:16;;;;;;;5.00;3.40;;;;;;;13.29;70.87;100677.23;104752;1263;69105;-64
2023/06/07 01:43:47;;;;;;;5.80;3.40;;;;;;;13.20;70.73;100674.99;104732;1267;69229;-64
2023/06/07 01:46:16;;;;;;;6.40;3.70;;;;;;;13.12;70.91;100671.61;104852;1265;73915;-64
2023/06/07 01:48:45;;;;;;;4.00;3.40;;;;;;;13.07;71.13;100674.52;104870;1262;81615;-64
2023/06/07 01:51:13;;;;;;;4.50;3.70;;;;;;;13.03;71.28;100672.06;104776;1262;73708;-64
2023/06/07 01:53:42;;;;;;;6.50;3.60;;;;;;;12.97;71.24;100669.66;104822;1265;69213;-63
2023/06/07 01:56:19;;;;;;;5.20;3.40;;;;;;;12.90;71.44;100672.23;104874;1263;69169;-64
2023/06/07 01:59:03;;;;;;;5.50;3.60;;;;;;;12.85;71.59;100675.45;104789;1265;75108;-64
2023/06/07 02:01:47;;;;;;;6.40;3.80;;;;;;;12.84;72.15;100675.67;104802;1266;83506;-64
2023/06/07 02:04:19;;;;;;;5.80;3.50;;;;;;;12.81;71.98;100677.38;104770;1266;74486;-64
2023/06/07 02:06:50;;;;;;;5.20;3.70;;;;;;;12.72;71.95;100676.66;104783;1267;69199;-64
2023/06/07 02:09:20;;;;;;;7.30;4.20;;;;;;;12.66;72.17;100674.65;104738;1268;69845;-64
2023/06/07 02:11:49;;;;;;;4.70;3.80;;;;;;;12.64;72.62;100678.92;104799;1263;73688;-64
2023/06/07 02:14:20;;;;;;;7.10;3.90;;;;;;;12.64;72.76;100678.23;104757;1263;83913;-64
2023/06/07 02:16:49;;;;;;;6.00;3.70;;;;;;;12.62;72.83;100680.59;104822;1265;72839;-64
2023/06/07 02:19:19;;;;;;;6.70;3.50;;;;;;;12.61;73.30;100682.56;104806;1262;69190;-64
2023/06/07 02:21:51;;;;;;;8.80;3.70;;;;;;;12.62;73.49;100679.02;104745;1262;69203;-64
2023/06/07 02:24:19;;;;;;;6.30;4.00;;;;;;;12.63;73.83;100673.55;104724;1263;73865;-64
2023/06/07 02:26:48;;;;;;;5.00;3.60;;;;;;;12.60;73.67;100673.48;104724;1265;83288;-63
2023/06/07 02:29:16;;;;;;;8.80;4.00;;;;;;;12.60;73.83;100675.23;104846;1262;72459;-64
2023/06/07 02:31:47;;;;;;;8.40;3.80;;;;;;;12.64;73.95;100679.10;104813;1265;69149;-64
2023/06/07 02:34:16;;;;;;;7.30;4.10;;;;;;;12.64;73.62;100677.88;104729;1262;69172;-64
2023/06/07 02:36:44;;;;;;;9.20;3.80;;;;;;;12.59;73.58;100679.68;104896;1265;73973;-63
2023/06/07 02:39:13;;;;;;;6.10;3.90;;;;;;;12.55;73.95;100681.21;104814;1263;82555;-64
2023/06/07 02:41:44;;;;;;;6.20;3.40;;;;;;;12.55;74.27;100678.27;104858;1265;74218;-63
2023/06/07 02:44:13;;;;;;;5.30;3.60;;;;;;;12.55;74.40;100681.41;104814;1262;69189;-63
2023/06/07 02:46:41;;;;;;;6.00;3.70;;;;;;;12.55;74.43;100678.41;104827;1265;69137;-63
2023/06/07 02:49:10;;;;;;;5.80;3.60;;;;;;;12.52;74.38;100681.19;104923;1262;75033;-63
2023/06/07 02:51:39;;;;;;;4.80;4.10;;;;;;;12.52;74.70;100682.56;104877;1262;83382;-63
2023/06/07 02:54:08;;;;;;;6.50;5.00;;;;;;;12.54;74.76;100686.89;104885;1265;73778;-63
2023/06/07 02:56:37;;;;;;;7.10;3.80;;;;;;;12.58;74.50;100692.00;104767;1264;69066;-63
2023/06/07 02:59:06;;;;;;;5.00;3.60;;;;;;;12.56;74.51;100690.81;104752;1262;69196;-64
2023/06/07 03:01:37;;;;;;;10.30;4.10;;;;;;;12.57;74.86;100694.83;104765;1266;75097;-64
2023/06/07 03:04:07;;;;;;;9.60;4.50;;;;;;;12.57;75.08;100691.65;104817;1263;83956;-64
2023/06/07 03:06:40;;;;;;;4.60;3.40;;;;;;;12.56;74.78;100688.94;104908;1262;73923;-63
2023/06/07 03:09:18;;;;;;;5.80;4.20;;;;;;;12.57;75.05;100687.62;104784;1262;69061;-63
2023/06/07 03:11:48;;;;;;;6.00;4.20;;;;;;;12.58;75.13;100689.71;104882;1265;69124;-64
2023/06/07 03:14:19;;;;;;;;;;;;;;;12.61;75.31;100691.33;104894;1265;74256;-64
2023/06/07 03:16:48;;;;;;;5.30;3.60;;;;;;;12.64;75.64;100691.74;104858;1262;82810;-65
2023/06/07 03:19:17;;;;;;;5.30;3.60;;;;;;;12.66;75.84;100693.20;104948;1265;73906;-65
2023/06/07 03:21:45;;;;;;;9.60;3.80;;;;;;;12.70;75.96;100692.36;104750;1267;69198;-65
2023/06/07 03:24:16;;;;;;;8.90;4.10;;;;;;;12.76;75.99;100698.80;104787;1263;69131;-64
2023/06/07 03:26:45;;;;;;;5.30;4.10;;;;;;;12.81;76.17;100702.77;104780;1262;75013;-64
2023/06/07 03:29:14;;;;;;;7.30;3.70;;;;;;;12.89;76.49;100707.17;104717;1269;83174;-65
2023/06/07 03:35:56;;;;;;;9.20;3.40;;;;;;;13.17;77.08;100714.96;104705;1262;69248;-63
2023/06/07 03:38:30;;;;;;;6.60;3.70;;;;;;;13.18;76.77;100717.72;104862;1265;69584;-66
2023/06/07 03:40:59;;;;;;;6.60;4.00;;;;;;;13.24;76.70;100715.38;104766;1262;74871;-66
2023/06/07 03:43:30;;;;;;;7.80;4.10;;;;;;;13.29;76.57;100716.03;104760;1263;82613;-66
2023/06/07 03:45:59;;;;;;;7.20;3.70;;;;;;;13.33;76.67;100713.24;104885;1265;72750;-65
2023/06/07 03:48:27;;;;;;;6.20;3.90;;;;;;;13.36;76.82;100710.28;104802;1265;69232;-66
2023/06/07 03:50:57;;;;;;;10.10;3.80;;;;;;;13.41;76.69;100710.78;104792;1263;69269;-65
2023/06/07 03:53:25;;;;;;;5.50;3.70;;;;;;;13.47;76.82;100710.19;104825;1265;74329;-66
2023/06/07 03:55:54;;;;;;;5.70;3.60;;;;;;;13.52;76.98;100709.77;104745;1263;83883;-65
2023/06/07 03:58:25;;;;;;;6.70;4.00;;;;;;;13.58;76.80;100711.77;104782;1268;73796;-67
2023/06/07 04:00:53;;;;;;;5.60;3.90;;;;;;;13.64;76.81;100711.89;104824;1263;69141;-66
2023/06/07 04:03:24;;;;;;;9.10;3.90;;;;;;;13.69;76.78;100715.51;104750;1268;69280;-66
2023/06/07 04:05:56;;;;;;;5.30;4.00;;;;;;;13.75;76.99;100713.16;104867;1262;74935;-66
2023/06/07 04:08:25;;;;;;;10.20;4.20;;;;;;;13.79;77.16;100714.00;104831;1268;82994;-66
2023/06/07 04:10:53;;;;;;;7.50;3.90;;;;;;;13.84;77.13;100712.55;104876;1268;73892;-67
2023/06/07 04:13:22;;;;;;;5.70;3.70;;;;;;;13.90;77.12;100713.34;104940;1263;69192;-69
2023/06/07 04:15:50;;;;;;;8.00;4.20;;;;;;;13.96;77.12;100706.23;104813;1262;69168;-68
2023/06/07 04:18:19;;;;;;;8.80;4.00;;;;;;;14.00;76.95;100702.67;104778;1267;74850;-68
2023/06/07 04:20:48;;;;;;;6.50;4.00;;;;;;;14.06;76.91;100701.15;104836;1262;83492;-68
2023/06/07 04:23:16;;;;;;;11.30;4.80;;;;;;;14.15;76.54;100699.70;104797;1263;73852;-70
2023/06/07 04:25:46;;;;;;;7.00;4.60;;;;;;;14.23;76.06;100703.34;104802;1262;69191;-70
2023/06/07 04:28:15;;;;;;;9.60;4.00;;;;;;;14.32;75.88;100705.39;104772;1265;69087;-68
2023/06/07 04:30:44;;;;;;;6.20;4.00;;;;;;;14.41;75.80;100708.28;104728;1263;73899;-68
2023/06/07 04:33:13;;;;;;;8.80;4.30;;;;;;;14.50;75.99;100714.56;104802;1263;83518;-66
2023/06/07 04:35:46;;;;;;;7.90;4.40;;;;;;;14.57;76.09;100712.51;104824;1266;73810;-65
2023/06/07 04:38:21;;;;;;;5.60;4.50;;;;;;;14.59;75.59;100716.64;104751;1262;69092;-65
2023/06/07 04:40:53;;;;;;;8.20;4.10;;;;;;;14.62;75.33;100720.52;104794;1265;69064;-65
2023/06/07 04:43:33;;;;;;;6.20;4.00;;;;;;;14.70;75.15;100716.94;104830;1267;74532;-65
2023/06/07 04:46:02;;;;;;;7.60;4.20;;;;;;;14.79;75.13;100720.02;104812;1262;81999;-65
2023/06/07 04:48:32;;;;;;;6.40;4.30;;;;;;;14.86;74.89;100722.86;104801;1268;72276;-65
2023/06/07 04:51:04;;;;;;;7.40;4.30;;;;;;;14.90;74.79;100721.59;104830;1263;69194;-64
2023/06/07 04:53:38;;;;;;;5.70;4.20;;;;;;;14.98;74.70;100719.29;104770;1267;69217;-65
2023/06/07 04:56:09;;;;;;;9.60;4.90;;;;;;;15.07;74.84;100720.90;104849;1265;73228;-64
2023/06/07 04:58:40;;;;;;;8.60;4.30;;;;;;;15.17;74.97;100720.73;104861;1263;83564;-64
2023/06/07 05:01:10;;;;;;;8.50;4.60;;;;;;;15.25;74.68;100715.07;104824;1262;73783;-65
2023/06/07 05:03:42;;;;;;;5.60;4.20;;;;;;;15.33;74.67;100716.23;104841;1262;69147;-64
2023/06/07 05:06:18;;;;;;;6.00;4.20;;;;;;;15.46;74.72;100716.48;104866;1263;69146;-65
2023/06/07 05:08:51;;;;;;;6.70;4.30;;;;;;;15.55;74.62;100719.66;104884;1262;73838;-67
2023/06/07 05:11:20;;;;;;;7.00;4.70;;;;;;;15.65;74.59;100716.16;104895;1265;83010;-68
2023/06/07 05:13:49;;;;;;;7.60;4.80;;;;;;;15.76;74.52;100722.13;104863;1263;72767;-65
2023/06/07 05:16:19;;;;;;;9.30;5.50;;;;;;;15.87;74.31;100730.69;104869;1263;69367;-73
2023/06/07 05:18:48;;;;;;;7.30;4.90;;;;;;;15.96;74.34;100729.86;104800;1262;69299;-61
2023/06/07 05:21:19;;;;;;;9.50;5.20;;;;;;;16.04;73.75;100731.16;104831;1265;74849;-64
2023/06/07 05:23:47;;;;;;;6.90;4.80;;;;;;;16.11;73.44;100731.32;104891;1265;83306;-61
2023/06/07 05:26:17;;;;;;;8.60;4.80;;;;;;;16.17;72.94;100729.58;104916;1265;73213;-62
2023/06/07 05:28:46;;;;;;;6.90;5.20;;;;;;;16.18;72.42;100735.70;104865;1267;69265;-63
2023/06/07 05:31:15;;;;;;;6.50;4.90;;;;;;;16.22;72.33;100735.84;104908;1263;69149;-64
2023/06/07 05:33:44;;;;;;;7.70;5.40;;;;;;;16.31;72.17;100734.83;104767;1262;74935;-64
2023/06/07 05:36:13;;;;;;;7.20;5.30;;;;;;;16.40;72.11;100735.56;104664;1262;82484;-64
2023/06/07 05:38:42;;;;;;;7.20;5.10;;;;;;;16.49;71.74;100735.38;104921;1263;72996;-63
2023/06/07 05:41:10;;;;;;;11.20;5.20;;;;;;;16.58;71.50;100738.05;104926;1265;69228;-61
2023/06/07 05:43:38;;;;;;;7.80;5.70;;;;;;;16.71;71.66;100738.23;104740;1263;69110;-59
2023/06/07 05:46:07;;;;;;;13.80;5.50;;;;;;;16.87;71.71;100738.38;104906;1268;74704;-60
2023/06/07 05:48:35;;;;;;;8.20;5.50;;;;;;;17.00;71.51;100736.39;104813;1262;82961;-60
2023/06/07 05:51:06;;;;;;;7.40;5.40;;;;;;;17.12;71.54;100738.64;104884;1262;73950;-62
2023/06/07 05:53:35;;;;;;;9.00;5.20;;;;;;;17.28;71.49;100743.90;104890;1263;69232;-62
2023/06/07 05:56:04;;;;;;;10.60;5.90;;;;;;;17.41;71.27;100742.81;104920;1265;69130;-62
2023/06/07 05:58:32;;;;;;;7.30;5.40;;;;;;;17.51;70.82;100742.36;102848;1257;5004236;-60
2023/06/07 06:01:01;;;;;;;10.40;5.20;;;;;;;17.62;70.54;100741.88;104914;1262;83751;-62
2023/06/07 06:03:29;;;;;;;6.30;5.30;;;;;;;17.73;70.32;100739.41;104951;1263;72678;-61
2023/06/07 06:05:58;;;;;;;8.90;5.50;;;;;;;17.84;69.99;100736.84;104956;1262;69213;-57
2023/06/07 06:08:26;;;;;;;10.20;6.00;;;;;;;17.98;70.12;100741.81;105017;1264;69206;-57
2023/06/07 06:10:54;;;;;;;16.50;6.20;;;;;;;18.11;69.97;100741.86;104963;1265;73755;-57
2023/06/07 06:13:22;;;;;;;11.00;5.60;;;;;;;18.23;69.85;100744.46;104923;1261;83425;-57
2023/06/07 06:15:51;;;;;;;7.30;5.80;;;;;;;18.36;69.52;100741.02;105130;1263;73634;-57
2023/06/07 06:18:19;;;;;;;9.20;5.60;;;;;;;18.46;69.30;100743.34;104965;1263;70404;-60
2023/06/07 06:20:47;;;;;;;10.80;6.30;;;;;;;18.57;69.27;100743.56;104869;1262;69070;-59
2023/06/07 06:23:16;;;;;;;10.10;7.10;;;;;;;18.71;69.08;100742.63;104982;1263;74973;-60
2023/06/07 06:25:44;;;;;;;10.10;7.00;;;;;;;18.83;69.00;100741.55;105045;1265;83327;-59
2023/06/07 06:28:13;;;;;;;10.50;7.80;;;;;;;18.97;69.24;100741.98;104972;1263;72384;-60
2023/06/07 06:30:42;;;;;;;10.70;7.40;;;;;;;19.11;69.09;100739.84;105085;1262;69298;-61
2023/06/07 06:33:10;;;;;;;12.80;7.70;;;;;;;19.20;68.71;100737.98;105237;1260;69933;-57
2023/06/07 06:35:39;;;;;;;11.50;6.80;;;;;;;19.26;68.67;100739.73;105036;1262;75072;-62
2023/06/07 06:38:07;;;;;;;12.30;7.90;;;;;;;19.36;68.99;100740.45;104892;1264;82550;-62
2023/06/07 06:40:36;;;;;;;12.20;7.80;;;;;;;19.48;69.03;100739.41;105003;1265;73636;-63
2023/06/07 06:43:05;;;;;;;8.50;6.80;;;;;;;19.58;68.93;100735.19;104905;1265;69158;-61
2023/06/07 06:45:36;;;;;;;7.80;6.50;;;;;;;19.69;68.85;100736.95;104782;1266;69565;-63
2023/06/07 06:48:05;;;;;;;12.10;7.00;;;;;;;19.78;68.40;100737.69;104925;1263;74346;-63
2023/06/07 06:50:34;;;;;;;8.60;7.20;;;;;;;19.87;68.32;100738.30;105100;1260;83387;-63
2023/06/07 06:53:03;;;;;;;7.80;6.40;;;;;;;19.95;67.90;100740.45;105014;1262;73595;-63
2023/06/07 06:55:31;;;;;;;8.10;6.40;;;;;;;19.98;67.54;100740.95;105179;1263;69393;-63
2023/06/07 06:57:59;;;;;;;11.10;6.80;;;;;;;20.02;67.44;100739.73;105020;1265;69204;-63
2023/06/07 07:00:35;;;;;;;8.60;6.10;;;;;;;20.11;67.35;100735.92;104966;1265;74213;-63
2023/06/07 07:03:05;;;;;;;7.70;5.70;;;;;;;20.18;66.94;100736.45;105022;1265;83399;-63
2023/06/07 07:05:33;;;;;;;7.90;5.60;;;;;;;20.25;66.69;100737.74;105101;1260;73686;-63
2023/06/07 07:08:06;;;;;;;7.10;5.60;;;;;;;20.36;66.40;100741.44;104899;1263;69049;-63
2023/06/07 07:10:34;;;;;;;10.50;5.50;;;;;;;20.44;66.09;100745.60;105025;1265;69161;-64
2023/06/07 07:13:03;;;;;;;7.80;5.60;;;;;;;20.52;65.56;100749.13;104993;1263;74679;-64
2023/06/07 07:15:31;;;;;;;9.20;5.30;;;;;;;20.59;65.05;100752.02;105039;1263;83081;-65
2023/06/07 07:18:00;;;;;;;7.90;5.50;;;;;;;20.69;64.64;100754.24;104933;1265;73104;-65
2023/06/07 07:20:28;;;;;;;6.00;4.70;;;;;;;20.84;64.28;100753.70;104983;1261;69106;-65
2023/06/07 07:22:59;;;;;;;8.70;5.10;;;;;;;21.01;64.11;100754.55;104929;1260;69206;-65
2023/06/07 07:25:27;;;;;;;5.90;4.90;;;;;;;21.21;63.75;100757.30;104952;1265;73979;-64
2023/06/07 07:27:56;;;;;;;5.90;3.90;;;;;;;21.40;62.99;100759.11;105751;1261;82600;-66
2023/06/07 07:30:25;;;;;;;5.00;3.70;;;;;;;21.59;61.94;100758.02;105037;1263;73316;-64
2023/06/07 07:32:55;;;;;;;9.50;4.50;;;;;;;21.78;61.46;100759.69;104976;1260;69021;-66
2023/06/07 07:35:24;;;;;;;5.10;3.50;;;;;;;22.00;60.36;100760.60;104947;1265;69188;-67
2023/06/07 07:38:00;;;;;;;6.30;4.20;;;;;;;22.17;59.49;100759.85;104940;1263;75012;-80
2023/06/07 07:40:29;;;;;;;7.40;4.60;;;;;;;22.40;59.18;100759.64;104908;1263;83535;-72
2023/06/07 07:42:57;;;;;;;5.60;3.70;;;;;;;22.63;58.19;100755.42;104998;1263;72460;-70
2023/06/07 07:45:26;;;;;;;5.30;4.10;;;;;;;22.84;57.67;100759.02;104996;1260;69113;-65
2023/06/07 07:47:54;;;;;;;4.20;3.50;;;;;;;22.94;56.95;100763.17;104934;1265;69148;-66
2023/06/07 07:50:23;;;;;;;3.90;3.20;;;;;;;23.05;56.08;100760.71;104862;1261;73914;-70
2023/06/07 07:52:53;;;;;;;6.30;3.90;;;;;;;23.08;55.74;100757.41;104860;1263;82442;-67
2023/06/07 07:55:23;;;;;;;6.30;3.60;;;;;;;23.14;55.20;100756.58;104943;1265;72747;-71
2023/06/07 07:57:51;;;;;;;4.70;3.80;;;;;;;23.24;54.88;100757.17;104958;1263;69167;-70
2023/06/07 08:00:20;;;;;;;5.50;3.60;;;;;;;23.34;54.39;100753.79;104921;1263;69193;-66
2023/06/07 08:02:49;;;;;;;;;;;;;;;23.44;54.31;100755.23;105004;1262;74934;-68
2023/06/07 08:05:17;;;;;;;5.50;3.50;;;;;;;23.58;53.65;100755.34;104946;1265;83387;-67
2023/06/07 08:07:46;;;;;;;5.70;3.40;;;;;;;23.70;53.29;100753.95;104803;1263;73936;-68
2023/06/07 08:10:14;;;;;;;7.00;4.10;;;;;;;23.80;53.12;100747.54;104838;1265;69206;-68
2023/06/07 08:12:43;;;;;;;5.40;3.80;;;;;;;23.90;52.86;100748.30;104888;1263;69088;-72
2023/06/07 08:15:11;;;;;;;4.30;3.90;;;;;;;23.99;52.57;100749.47;104845;1263;73814;-70
2023/06/07 08:17:40;;;;;;;7.10;4.30;;;;;;;24.08;52.53;100746.36;104898;1265;83509;-69
2023/06/07 08:20:09;;;;;;;6.80;4.40;;;;;;;24.25;52.63;100744.30;104870;1261;72755;-69
2023/06/07 08:22:38;;;;;;;5.50;4.20;;;;;;;24.40;52.24;100737.40;104922;1263;69693;-66
2023/06/07 08:25:07;;;;;;;6.30;4.50;;;;;;;24.48;51.94;100734.17;104845;1263;69211;-68
2023/06/07 08:27:35;;;;;;;4.90;4.40;;;;;;;24.61;51.97;100737.33;104846;1265;73566;-69
2023/06/07 08:30:06;;;;;;;6.00;4.10;;;;;;;24.76;51.54;100736.37;104964;1263;82672;-75
2023/06/07 08:32:35;;;;;;;5.30;4.20;;;;;;;24.85;51.20;100735.34;104799;1263;72848;-69
2023/06/07 08:35:04;;;;;;;5.20;4.10;;;;;;;24.92;51.10;100739.84;104993;1261;69330;-68
2023/06/07 08:37:32;;;;;;;5.70;4.60;;;;;;;24.97;50.57;100736.88;104988;1263;69222;-69
2023/06/07 08:40:01;;;;;;;5.10;4.20;;;;;;;24.99;50.31;100734.73;104848;1261;74809;-68
2023/06/07 08:42:30;;;;;;;5.30;4.10;;;;;;;25.04;50.04;100734.83;104986;1263;82917;-69
2023/06/07 08:45:00;;;;;;;5.60;4.10;;;;;;;25.12;49.99;100732.33;104879;1265;72719;-66
2023/06/07 08:47:29;;;;;;;5.10;3.60;;;;;;;25.18;49.79;100733.93;105016;1265;69843;-69
2023/06/07 08:49:58;;;;;;;7.20;4.10;;;;;;;25.24;49.26;100734.10;104843;1266;69260;-66
2023/06/07 08:52:27;;;;;;;;;;;;;;;25.18;48.94;100730.86;105039;1265;73588;-68
2023/06/07 08:54:58;;;;;;;5.90;4.40;;;;;;;25.13;49.06;100732.54;104963;1265;83443;-71
2023/06/07 08:57:28;;;;;;;7.40;4.50;;;;;;;25.10;49.06;100735.89;104793;1268;72438;-66
2023/06/07 08:59:57;;;;;;;6.60;3.90;;;;;;;25.08;49.32;100734.61;104848;1267;69773;-66
2023/06/07 09:02:25;;;;;;;7.40;4.30;;;;;;;25.09;49.16;100740.44;104867;1264;69223;-70
2023/06/07 09:04:54;;;;;;;5.20;4.30;;;;;;;25.05;49.19;100740.83;104910;1263;74923;-67
2023/06/07 09:07:22;;;;;;;5.60;4.10;;;;;;;25.05;49.55;100742.27;104866;1265;83421;-69
2023/06/07 09:09:51;;;;;;;5.20;4.20;;;;;;;25.07;49.41;100742.61;104822;1265;73625;-67
2023/06/07 09:12:19;;;;;;;6.60;4.00;;;;;;;25.03;48.90;100744.90;104807;1263;69128;-71
2023/06/07 09:14:48;;;;;;;5.80;4.10;;;;;;;24.99;48.62;100748.20;104852;1263;69128;-67
2023/06/07 09:17:16;;;;;;;5.90;4.00;;;;;;;25.01;48.83;100748.49;104824;1265;75153;-66
2023/06/07 09:19:44;;;;;;;7.10;4.00;;;;;;;25.11;48.99;100749.04;104902;1265;83162;-68
2023/06/07 09:22:14;;;;;;;7.40;4.00;;;;;;;25.26;48.95;100751.27;104896;1265;72874;-73
2023/06/07 09:24:42;;;;;;;5.20;4.20;;;;;;;25.32;48.96;100747.27;104858;1263;69206;-70
2023/06/07 09:27:12;;;;;;;5.80;4.40;;;;;;;25.35;49.21;100746.41;104797;1265;69245;-67
2023/06/07 09:29:42;;;;;;;5.30;3.80;;;;;;;25.46;49.17;100748.59;104889;1265;73955;-71
2023/06/07 09:32:21;;;;;;;5.60;4.30;;;;;;;25.58;49.39;100746.05;104849;1262;83494;-71
2023/06/07 09:34:52;;;;;;;4.70;3.90;;;;;;;25.70;49.22;100746.36;104885;1263;73964;-69
2023/06/07 09:37:21;;;;;;;7.20;4.50;;;;;;;25.74;48.81;100746.65;104836;1262;69136;-66
2023/06/07 09:39:54;;;;;;;4.60;3.70;;;;;;;25.75;48.34;100748.38;104872;1265;69166;-69
2023/06/07 09:42:22;;;;;;;4.50;4.10;;;;;;;25.79;48.74;100747.96;104846;1263;73893;-70
2023/06/07 09:44:51;;;;;;;5.30;3.80;;;;;;;25.87;47.85;100745.13;104832;1265;83509;-70
2023/06/07 09:47:23;;;;;;;4.90;3.40;;;;;;;25.98;47.01;100743.70;104909;1265;73988;-71
2023/06/07 09:50:05;;;;;;;4.40;3.60;;;;;;;26.12;47.06;100742.58;104843;1265;69233;-69
2023/06/07 09:52:34;;;;;;;6.20;3.90;;;;;;;26.26;46.79;100740.59;104893;1262;69213;-68
2023/06/07 09:55:06;;;;;;;7.10;3.80;;;;;;;26.44;46.34;100737.42;104794;1263;74931;-67
2023/06/07 09:57:37;;;;;;;5.70;3.50;;;;;;;26.66;45.61;100739.06;104810;1263;82881;-71
2023/06/07 10:00:13;;;;;;;5.10;4.10;;;;;;;26.86;44.78;100734.16;104807;1265;73823;-66
2023/06/07 10:02:43;;;;;;;5.20;3.70;;;;;;;27.13;44.31;100729.23;104854;1265;69193;-65
2023/06/07 10:05:13;;;;;;;5.40;4.10;;;;;;;27.36;43.76;100728.55;104898;1265;69152;-67
2023/06/07 10:07:46;;;;;;;5.40;3.70;;;;;;;27.56;43.65;100728.67;105001;1265;74001;-66
2023/06/07 10:10:18;;;;;;;5.20;3.80;;;;;;;27.80;43.47;100718.98;104999;1263;83856;-70
2023/06/07 10:12:48;;;;;;;7.80;4.10;;;;;;;28.02;42.79;100716.11;104917;1265;72824;-69
2023/06/07 10:15:24;;;;;;;5.90;4.00;;;;;;;28.25;42.43;100711.29;104926;1263;69100;-71
2023/06/07 10:18:13;;;;;;;6.60;4.00;;;;;;;28.60;42.67;100708.33;105000;1265;69186;-71
2023/06/07 10:20:57;;;;;;;5.40;4.00;;;;;;;29.08;42.29;100708.28;104955;1263;73930;-67
2023/06/07 10:23:35;;;;;;;5.70;3.50;;;;;;;29.48;41.23;100710.23;104977;1265;83708;-79
2023/06/07 10:26:06;;;;;;;6.40;3.90;;;;;;;29.82;40.65;100703.26;105002;1262;72563;-73
2023/06/07 10:28:46;;;;;;;5.50;4.10;;;;;;;29.95;39.92;100701.38;104975;1265;69301;-76
2023/06/07 10:31:16;;;;;;;9.00;4.20;;;;;;;30.15;39.92;100699.64;104930;1265;69160;-75
2023/06/07 10:33:44;;;;;;;9.30;3.70;;;;;;;30.59;39.26;100691.73;104992;1265;73938;-77
2023/06/07 10:36:13;;;;;;;5.50;3.50;;;;;;;30.98;38.50;100693.55;104877;1263;82517;-73
2023/06/07 10:38:42;;;;;;;5.10;3.50;;;;;;;31.34;37.95;100691.86;104996;1263;73744;-77
2023/06/07 10:41:10;;;;;;;12.80;3.60;;;;;;;31.70;37.14;100692.84;104996;1265;69210;-72
2023/06/07 10:43:46;;;;;;;5.90;3.40;;;;;;;32.09;36.22;100684.40;104918;1265;69157;-71
2023/06/07 10:46:25;;;;;;;5.30;3.20;;;;;;;32.54;36.19;100682.44;104966;1263;73853;-75
2023/06/07 10:48:55;;;;;;;4.60;3.40;;;;;;;32.88;35.68;100677.16;104900;1265;82555;-78
2023/06/07 10:51:48;;;;;;;4.80;3.40;;;;;;;32.76;35.22;100677.23;104945;1263;73896;-76
2023/06/07 10:54:33;;;;;;;4.50;3.40;;;;;;;33.03;34.79;100671.40;104790;1265;69227;-71
2023/06/07 10:57:02;;;;;;;4.40;3.10;;;;;;;33.21;34.37;100669.63;104840;1263;69245;-80
2023/06/07 10:59:31;;;;;;;5.80;3.70;;;;;;;32.90;33.41;100672.63;104912;1267;75066;-80
2023/06/07 11:02:19;;;;;;;5.90;3.10;;;;;;;32.37;33.06;100669.36;104934;1266;83389;-81
2023/06/07 11:04:57;;;;;;;7.30;4.00;;;;;;;31.87;32.73;100658.64;104939;1263;74228;-81
2023/06/07 11:07:30;;;;;;;6.70;3.70;;;;;;;31.31;32.92;100664.90;104917;1265;69228;-82
2023/06/07 11:10:00;;;;;;;5.30;3.30;;;;;;;30.89;33.26;100662.53;104984;1263;69157;-85
2023/06/07 11:12:35;;;;;;;;;;;;;;;30.68;33.45;100663.05;104966;1265;74020;-83
2023/06/07 11:15:24;;;;;;;4.90;3.50;;;;;;;30.90;33.71;100658.76;105004;1265;83422;-85
2023/06/07 11:18:05;;;;;;;7.80;3.60;;;;;;;31.15;34.30;100655.61;104951;1263;74025;-79
2023/06/07 11:20:36;;;;;;;7.50;3.90;;;;;;;30.97;33.90;100664.20;104977;1262;69170;-68
2023/06/07 11:23:23;;;;;;;6.50;3.70;;;;;;;30.56;33.71;100662.10;104842;1265;69227;-68
2023/06/07 11:26:06;;;;;;;7.90;3.60;;;;;;;30.46;33.63;100661.17;104869;1263;74935;-71
2023/06/07 11:28:37;;;;;;;5.70;3.20;;;;;;;30.68;33.38;100661.91;105000;1265;83218;-70
2023/06/07 11:31:11;;;;;;;5.60;3.20;;;;;;;31.20;33.22;100658.45;104955;1263;73750;-74
2023/06/07 11:33:40;;;;;;;3.80;3.00;;;;;;;31.67;32.89;100654.33;104949;1265;69209;-69
2023/06/07 11:36:09;;;;;;;5.10;3.60;;;;;;;32.20;32.44;100653.81;104960;1265;69220;-68